createdAt,value
2019-04-23T00:00:40.722Z,0.00
2019-04-23T00:01:41.865Z,0.00
2019-04-23T00:02:44.383Z,0.00
2019-04-23T00:03:40.250Z,0.00
2019-04-23T00:04:35.187Z,0.00
2019-04-23T00:05:49.071Z,0.00
2019-04-23T00:06:53.844Z,0.00
2019-04-23T00:07:49.300Z,0.00
2019-04-23T00:08:50.195Z,0.00
2019-04-23T00:09:42.385Z,0.00
2019-04-23T00:10:44.105Z,0.00
2019-04-23T00:11:49.602Z,0.00
2019-04-23T00:12:49.402Z,0.00
2019-04-23T00:13:43.912Z,0.00
2019-04-23T00:14:51.405Z,0.00
2019-04-23T00:15:45.409Z,0.00
2019-04-23T00:16:43.953Z,0.00
2019-04-23T00:17:42.544Z,0.00
2019-04-23T00:18:46.456Z,0.00
2019-04-23T00:19:45.143Z,0.00
2019-04-23T00:20:40.747Z,0.00
2019-04-23T00:22:45.348Z,0.00
2019-04-23T00:23:47.870Z,0.00
2019-04-23T00:25:51.061Z,0.00
2019-04-23T00:26:41.830Z,0.00
2019-04-23T00:27:42.882Z,0.00
2019-04-23T00:28:47.898Z,0.00
2019-04-23T00:29:49.606Z,0.00
2019-04-23T00:31:44.586Z,0.00
2019-04-23T00:32:40.840Z,0.00
2019-04-23T00:33:43.682Z,0.00
2019-04-23T00:34:49.726Z,0.00
2019-04-23T00:37:54.897Z,0.00
2019-04-23T00:39:50.737Z,0.00
2019-04-23T00:40:43.622Z,0.00
2019-04-23T00:41:44.229Z,0.00
2019-04-23T00:42:59.538Z,0.00
2019-04-23T00:43:43.223Z,0.00
2019-04-23T00:44:48.128Z,0.00
2019-04-23T00:45:44.141Z,0.00
2019-04-23T00:46:45.282Z,0.00
2019-04-23T00:47:46.698Z,0.00
2019-04-23T00:49:46.959Z,0.00
2019-04-23T00:50:49.254Z,0.00
2019-04-23T00:51:42.918Z,0.00
2019-04-23T00:52:42.185Z,0.00
2019-04-23T00:53:40.148Z,0.00
2019-04-23T00:55:44.690Z,0.00
2019-04-23T00:56:50.791Z,0.00
2019-04-23T00:57:47.091Z,0.00
2019-04-23T00:58:43.183Z,0.00
2019-04-23T00:59:44.760Z,0.00
2019-04-23T01:02:49.351Z,0.00
2019-04-23T01:03:39.434Z,0.00
2019-04-23T01:05:42.240Z,0.00
2019-04-23T01:06:39.065Z,0.00
2019-04-23T01:07:45.825Z,0.00
2019-04-23T01:08:55.418Z,0.00
2019-04-23T01:09:47.393Z,0.00
2019-04-23T01:10:50.948Z,0.00
2019-04-23T01:11:39.186Z,0.00
2019-04-23T01:12:46.117Z,0.00
2019-04-23T01:13:47.468Z,0.00
2019-04-23T01:14:39.262Z,0.00
2019-04-23T01:16:37.417Z,0.00
2019-04-23T01:19:43.923Z,0.00
2019-04-23T01:20:44.447Z,0.00
2019-04-23T01:21:20.586Z,0.00
2019-04-23T01:22:20.992Z,0.00
2019-04-23T01:23:20.731Z,0.00
2019-04-23T01:24:25.052Z,0.00
2019-04-23T01:25:31.005Z,0.00
2019-04-23T01:26:47.972Z,0.00
2019-04-23T01:28:49.662Z,0.00
2019-04-23T01:29:54.588Z,0.00
2019-04-23T01:30:46.830Z,0.00
2019-04-23T01:31:47.523Z,0.00
2019-04-23T01:32:43.665Z,0.00
2019-04-23T01:33:53.151Z,0.00
2019-04-23T01:34:51.969Z,0.00
2019-04-23T01:35:55.785Z,0.00
2019-04-23T01:36:42.940Z,0.00
2019-04-23T01:38:46.159Z,0.00
2019-04-23T01:39:49.891Z,0.00
2019-04-23T01:40:41.154Z,0.00
2019-04-23T01:41:50.722Z,0.00
2019-04-23T01:43:01.809Z,0.00
2019-04-23T01:43:47.721Z,0.00
2019-04-23T01:44:56.404Z,0.00
2019-04-23T01:45:35.842Z,0.00
2019-04-23T01:46:49.277Z,0.00
2019-04-23T01:48:48.600Z,0.00
2019-04-23T01:49:54.318Z,0.00
2019-04-23T01:50:50.133Z,0.00
2019-04-23T01:51:49.664Z,0.00
2019-04-23T01:53:45.260Z,0.00
2019-04-23T01:54:50.008Z,0.00
2019-04-23T01:55:46.903Z,0.00
2019-04-23T01:56:39.965Z,0.00
2019-04-23T01:57:56.030Z,0.00
2019-04-23T01:58:44.021Z,0.00
2019-04-23T01:59:49.057Z,0.00
2019-04-23T02:00:47.677Z,0.00
2019-04-23T02:01:58.462Z,0.00
2019-04-23T02:02:49.938Z,0.00
2019-04-23T02:03:50.105Z,0.00
2019-04-23T02:04:47.101Z,0.00
2019-04-23T02:05:48.283Z,0.00
2019-04-23T02:06:45.846Z,0.00
2019-04-23T02:07:50.909Z,0.00
2019-04-23T02:08:50.070Z,0.00
2019-04-23T02:09:52.887Z,0.00
2019-04-23T02:10:53.702Z,0.00
2019-04-23T02:11:45.561Z,0.00
2019-04-23T02:12:53.617Z,0.00
2019-04-23T02:13:51.492Z,0.00
2019-04-23T02:14:50.370Z,0.00
2019-04-23T02:15:47.433Z,0.00
2019-04-23T02:16:45.916Z,0.00
2019-04-23T02:17:52.123Z,0.00
2019-04-23T02:18:49.354Z,0.00
2019-04-23T02:20:49.817Z,0.00
2019-04-23T02:21:43.788Z,0.00
2019-04-23T02:23:09.806Z,0.00
2019-04-23T02:23:42.440Z,0.00
2019-04-23T02:24:47.922Z,0.00
2019-04-23T02:26:45.049Z,0.00
2019-04-23T02:27:58.290Z,0.00
2019-04-23T02:31:12.148Z,0.00
2019-04-23T02:33:00.530Z,0.00
2019-04-23T02:34:14.779Z,0.00
2019-04-23T02:36:54.775Z,0.00
2019-04-23T02:38:00.638Z,0.00
2019-04-23T02:39:57.576Z,0.00
2019-04-23T02:41:04.346Z,0.00
2019-04-23T02:42:07.311Z,0.00
2019-04-23T02:43:01.538Z,0.00
2019-04-23T02:44:01.234Z,0.00
2019-04-23T02:46:01.922Z,0.00
2019-04-23T02:46:59.795Z,0.00
2019-04-23T02:48:03.367Z,0.00
2019-04-23T02:48:53.695Z,0.00
2019-04-23T02:50:43.922Z,0.00
2019-04-23T02:52:01.832Z,0.00
2019-04-23T02:52:56.117Z,0.00
2019-04-23T02:54:10.237Z,0.00
2019-04-23T02:54:57.141Z,0.00
2019-04-23T02:56:04.337Z,0.00
2019-04-23T02:56:51.151Z,0.00
2019-04-23T02:57:57.884Z,0.00
2019-04-23T02:58:52.591Z,0.00
2019-04-23T03:00:09.921Z,0.00
2019-04-23T03:01:06.467Z,0.00
2019-04-23T03:01:53.892Z,0.00
2019-04-23T03:04:58.355Z,0.00
2019-04-23T03:05:54.928Z,0.00
2019-04-23T03:06:55.959Z,0.00
2019-04-23T03:07:53.277Z,0.00
2019-04-23T03:09:51.810Z,0.00
2019-04-23T03:11:02.523Z,0.00
2019-04-23T03:13:54.331Z,0.00
2019-04-23T03:15:15.159Z,0.00
2019-04-23T03:17:59.396Z,0.00
2019-04-23T03:21:05.820Z,0.00
2019-04-23T03:23:03.640Z,0.00
2019-04-23T03:24:04.464Z,0.00
2019-04-23T03:25:56.560Z,0.00
2019-04-23T03:27:12.858Z,0.00
2019-04-23T03:27:45.990Z,0.00
2019-04-23T03:29:54.930Z,0.00
2019-04-23T03:32:34.183Z,0.00
2019-04-23T03:34:41.107Z,0.00
2019-04-23T03:38:48.383Z,0.00
2019-04-23T03:39:56.856Z,0.00
2019-04-23T03:41:02.469Z,0.00
2019-04-23T03:41:53.875Z,0.00
2019-04-23T03:43:07.921Z,0.00
2019-04-23T03:44:06.683Z,0.00
2019-04-23T03:46:12.215Z,0.00
2019-04-23T03:47:48.128Z,0.00
2019-04-23T03:48:51.180Z,0.00
2019-04-23T03:50:02.190Z,0.00
2019-04-23T03:50:44.045Z,0.00
2019-04-23T03:52:09.097Z,0.00
2019-04-23T03:52:57.273Z,0.00
2019-04-23T03:54:48.703Z,0.00
2019-04-23T03:55:54.652Z,0.00
2019-04-23T03:57:13.450Z,0.00
2019-04-23T03:57:43.413Z,0.00
2019-04-23T03:58:51.314Z,0.00
2019-04-23T04:00:58.386Z,0.00
2019-04-23T04:01:58.118Z,0.00
2019-04-23T04:03:03.748Z,0.00
2019-04-23T04:04:55.071Z,0.00
2019-04-23T04:07:10.505Z,0.00
2019-04-23T04:08:05.032Z,5.62
2019-04-23T04:09:03.132Z,5.62
2019-04-23T04:09:53.861Z,5.62
2019-04-23T04:11:09.630Z,5.62
2019-04-23T04:11:44.962Z,5.62
2019-04-23T04:12:46.018Z,5.62
2019-04-23T04:14:54.596Z,11.25
2019-04-23T04:15:55.245Z,11.25
2019-04-23T04:16:49.748Z,11.25
2019-04-23T04:18:01.845Z,11.25
2019-04-23T04:18:57.209Z,11.25
2019-04-23T04:19:59.892Z,11.25
2019-04-23T04:21:09.549Z,11.25
2019-04-23T04:22:00.322Z,16.88
2019-04-23T04:23:02.775Z,16.88
2019-04-23T04:24:11.229Z,16.88
2019-04-23T04:24:48.157Z,16.88
2019-04-23T04:26:07.102Z,22.50
2019-04-23T04:27:03.563Z,22.50
2019-04-23T04:28:54.894Z,22.50
2019-04-23T04:30:49.291Z,28.12
2019-04-23T04:31:52.310Z,28.12
2019-04-23T04:35:12.567Z,33.75
2019-04-23T04:35:47.482Z,39.38
2019-04-23T04:37:24.302Z,39.38
2019-04-23T04:38:54.483Z,45.00
2019-04-23T04:40:12.332Z,45.00
2019-04-23T04:40:57.268Z,45.00
2019-04-23T04:41:58.734Z,45.00
2019-04-23T04:43:09.283Z,50.62
2019-04-23T04:46:04.959Z,56.25
2019-04-23T04:46:50.128Z,56.25
2019-04-23T04:49:01.610Z,61.88
2019-04-23T04:51:06.101Z,67.50
2019-04-23T04:52:01.110Z,67.50
2019-04-23T04:53:12.602Z,73.12
2019-04-23T04:54:09.623Z,73.12
2019-04-23T04:54:42.320Z,78.75
2019-04-23T04:55:54.884Z,78.75
2019-04-23T04:56:58.159Z,84.38
2019-04-23T04:58:55.756Z,90.00
2019-04-23T05:01:03.631Z,101.25
2019-04-23T05:03:36.403Z,106.88
2019-04-23T05:06:08.018Z,106.88
2019-04-23T05:07:04.212Z,106.88
2019-04-23T05:07:48.200Z,106.88
2019-04-23T05:08:54.494Z,112.50
2019-04-23T05:11:04.667Z,112.50
2019-04-23T05:11:54.171Z,118.12
2019-04-23T05:12:45.255Z,123.75
2019-04-23T05:15:50.212Z,135.00
2019-04-23T05:16:52.832Z,140.62
2019-04-23T05:17:59.330Z,140.62
2019-04-23T05:18:47.088Z,135.00
2019-04-23T05:20:54.836Z,140.62
2019-04-23T05:21:54.926Z,146.25
2019-04-23T05:23:02.768Z,151.88
2019-04-23T05:25:47.904Z,168.75
2019-04-23T05:26:39.511Z,174.38
2019-04-23T05:27:56.513Z,180.00
2019-04-23T05:28:55.642Z,191.25
2019-04-23T05:29:46.226Z,196.88
2019-04-23T05:31:02.351Z,202.50
2019-04-23T05:31:42.158Z,208.12
2019-04-23T05:32:50.413Z,219.38
2019-04-23T05:33:47.662Z,225.00
2019-04-23T05:34:46.703Z,230.62
2019-04-23T05:36:08.894Z,241.88
2019-04-23T05:36:52.069Z,253.12
2019-04-23T05:37:59.063Z,264.38
2019-04-23T05:38:50.792Z,275.62
2019-04-23T05:39:52.155Z,298.12
2019-04-23T05:40:53.708Z,320.62
2019-04-23T05:41:41.712Z,360.00
2019-04-23T05:42:49.396Z,489.38
2019-04-23T05:43:46.459Z,703.12
2019-04-23T05:47:07.194Z,573.75
2019-04-23T05:47:48.243Z,641.25
2019-04-23T05:48:45.582Z,793.12
2019-04-23T05:49:47.640Z,900.00
2019-04-23T05:50:51.872Z,1085.62
2019-04-23T05:51:50.899Z,1164.38
2019-04-23T05:52:45.930Z,1136.25
2019-04-23T05:53:46.661Z,1023.75
2019-04-23T05:54:52.309Z,911.25
2019-04-23T05:55:49.394Z,945.00
2019-04-23T05:56:49.031Z,1164.38
2019-04-23T05:57:47.054Z,1248.75
2019-04-23T05:58:47.013Z,1153.12
2019-04-23T05:59:42.214Z,1276.88
2019-04-23T06:00:51.023Z,1462.50
2019-04-23T06:01:53.991Z,1490.62
2019-04-23T06:02:53.046Z,1462.50
2019-04-23T06:03:52.625Z,1485.00
2019-04-23T06:04:43.146Z,1546.88
2019-04-23T06:05:46.573Z,1507.50
2019-04-23T06:07:04.713Z,1434.38
2019-04-23T06:08:48.460Z,1445.62
2019-04-23T06:09:49.905Z,1248.75
2019-04-23T06:10:54.164Z,1012.50
2019-04-23T06:12:45.349Z,1175.62
2019-04-23T06:13:56.322Z,1226.25
2019-04-23T06:14:48.763Z,1344.38
2019-04-23T06:15:46.629Z,1614.38
2019-04-23T06:18:02.326Z,1653.75
2019-04-23T06:18:47.920Z,1490.62
2019-04-23T06:19:48.386Z,1490.62
2019-04-23T06:20:48.791Z,1485.00
2019-04-23T06:21:57.516Z,1428.75
2019-04-23T06:24:41.547Z,1040.62
2019-04-23T06:25:57.680Z,1006.88
2019-04-23T06:26:45.834Z,933.75
2019-04-23T06:27:49.490Z,877.50
2019-04-23T06:28:44.158Z,838.12
2019-04-23T06:29:57.733Z,866.25
2019-04-23T06:30:46.770Z,916.88
2019-04-23T06:31:50.937Z,984.38
2019-04-23T06:32:42.977Z,984.38
2019-04-23T06:34:03.825Z,883.12
2019-04-23T06:34:42.795Z,849.38
2019-04-23T06:35:47.022Z,787.50
2019-04-23T06:36:44.477Z,776.25
2019-04-23T06:38:04.840Z,798.75
2019-04-23T06:38:58.844Z,821.25
2019-04-23T06:39:48.081Z,922.50
2019-04-23T06:40:47.606Z,1057.50
2019-04-23T06:41:44.880Z,922.50
2019-04-23T06:42:49.859Z,697.50
2019-04-23T06:43:56.394Z,607.50
2019-04-23T06:44:44.972Z,562.50
2019-04-23T06:46:01.535Z,540.00
2019-04-23T06:46:50.563Z,534.38
2019-04-23T06:47:46.402Z,528.75
2019-04-23T06:48:45.455Z,523.12
2019-04-23T06:49:45.029Z,517.50
2019-04-23T06:50:52.996Z,517.50
2019-04-23T06:51:56.574Z,511.88
2019-04-23T06:52:31.923Z,511.88
2019-04-23T06:53:45.351Z,523.12
2019-04-23T06:54:49.316Z,534.38
2019-04-23T06:55:47.128Z,534.38
2019-04-23T06:56:51.097Z,534.38
2019-04-23T06:57:44.247Z,545.62
2019-04-23T06:58:43.422Z,573.75
2019-04-23T06:59:43.343Z,630.00
2019-04-23T07:01:53.193Z,663.75
2019-04-23T07:02:47.378Z,618.75
2019-04-23T07:03:43.819Z,607.50
2019-04-23T07:04:49.651Z,613.12
2019-04-23T07:05:53.482Z,630.00
2019-04-23T07:06:46.896Z,596.25
2019-04-23T07:07:55.153Z,568.12
2019-04-23T07:09:40.156Z,579.38
2019-04-23T07:10:55.503Z,562.50
2019-04-23T07:11:40.205Z,556.88
2019-04-23T07:12:55.774Z,556.88
2019-04-23T07:13:56.420Z,573.75
2019-04-23T07:15:00.854Z,551.25
2019-04-23T07:15:50.097Z,534.38
2019-04-23T07:16:38.440Z,511.88
2019-04-23T07:17:42.801Z,500.62
2019-04-23T07:18:43.470Z,495.00
2019-04-23T07:19:44.978Z,495.00
2019-04-23T07:20:40.583Z,495.00
2019-04-23T07:21:41.817Z,495.00
2019-04-23T07:22:42.853Z,500.62
2019-04-23T07:23:53.917Z,506.25
2019-04-23T07:24:43.661Z,511.88
2019-04-23T07:25:40.407Z,517.50
2019-04-23T07:26:45.361Z,523.12
2019-04-23T07:27:43.230Z,528.75
2019-04-23T07:28:50.399Z,540.00
2019-04-23T07:29:40.889Z,551.25
2019-04-23T07:30:38.362Z,573.75
2019-04-23T07:32:44.829Z,748.12
2019-04-23T07:33:50.655Z,832.50
2019-04-23T07:34:49.758Z,855.00
2019-04-23T07:35:49.479Z,928.12
2019-04-23T07:36:41.070Z,1023.75
2019-04-23T07:37:51.699Z,916.88
2019-04-23T07:39:01.544Z,798.75
2019-04-23T07:39:45.642Z,781.88
2019-04-23T07:40:40.579Z,776.25
2019-04-23T07:41:47.860Z,776.25
2019-04-23T07:42:41.906Z,776.25
2019-04-23T07:43:52.458Z,781.88
2019-04-23T07:45:44.645Z,759.38
2019-04-23T07:46:56.288Z,776.25
2019-04-23T07:47:41.781Z,810.00
2019-04-23T07:48:43.792Z,815.62
2019-04-23T07:49:49.131Z,838.12
2019-04-23T07:50:44.124Z,832.50
2019-04-23T07:51:46.897Z,832.50
2019-04-23T07:52:50.664Z,804.38
2019-04-23T07:53:46.536Z,793.12
2019-04-23T07:54:51.286Z,810.00
2019-04-23T07:55:49.628Z,815.62
2019-04-23T07:56:47.684Z,821.25
2019-04-23T07:57:41.919Z,826.88
2019-04-23T07:58:44.785Z,826.88
2019-04-23T07:59:50.178Z,838.12
2019-04-23T08:01:39.220Z,860.62
2019-04-23T08:03:08.706Z,894.38
2019-04-23T08:03:45.993Z,984.38
2019-04-23T08:04:56.808Z,1175.62
2019-04-23T08:05:39.682Z,1344.38
2019-04-23T08:06:50.657Z,1344.38
2019-04-23T08:07:47.273Z,1383.75
2019-04-23T08:08:47.484Z,1400.62
2019-04-23T08:09:48.130Z,1321.88
2019-04-23T08:11:12.046Z,1282.50
2019-04-23T08:11:58.019Z,1260.00
2019-04-23T08:12:46.912Z,1158.75
2019-04-23T08:13:48.907Z,1113.75
2019-04-23T08:14:51.571Z,1074.38
2019-04-23T08:15:43.371Z,984.38
2019-04-23T08:16:43.843Z,928.12
2019-04-23T08:17:41.549Z,911.25
2019-04-23T08:18:49.327Z,894.38
2019-04-23T08:19:49.906Z,877.50
2019-04-23T08:20:49.030Z,871.88
2019-04-23T08:21:39.982Z,843.75
2019-04-23T08:22:53.772Z,843.75
2019-04-23T08:23:42.552Z,888.75
2019-04-23T08:24:52.101Z,928.12
2019-04-23T08:26:00.486Z,950.62
2019-04-23T08:27:43.648Z,978.75
2019-04-23T08:28:58.385Z,990.00
2019-04-23T08:29:41.043Z,1012.50
2019-04-23T08:30:49.925Z,1068.75
2019-04-23T08:31:45.115Z,1113.75
2019-04-23T08:32:45.232Z,1102.50
2019-04-23T08:33:49.909Z,1057.50
2019-04-23T08:34:45.122Z,1029.38
2019-04-23T08:35:48.598Z,1046.25
2019-04-23T08:37:54.351Z,911.25
2019-04-23T08:38:44.429Z,804.38
2019-04-23T08:39:44.627Z,731.25
2019-04-23T08:40:52.313Z,697.50
2019-04-23T08:41:59.961Z,669.38
2019-04-23T08:43:49.374Z,646.88
2019-04-23T08:44:46.182Z,641.25
2019-04-23T08:45:35.495Z,635.62
2019-04-23T08:46:51.820Z,630.00
2019-04-23T08:47:42.591Z,630.00
2019-04-23T08:48:41.615Z,630.00
2019-04-23T08:49:46.813Z,635.62
2019-04-23T08:52:48.386Z,641.25
2019-04-23T08:53:41.003Z,635.62
2019-04-23T08:54:55.906Z,635.62
2019-04-23T08:56:48.570Z,641.25
2019-04-23T08:57:36.942Z,635.62
2019-04-23T08:58:54.928Z,641.25
2019-04-23T08:59:45.469Z,646.88
2019-04-23T09:00:45.670Z,652.50
2019-04-23T09:01:59.464Z,652.50
2019-04-23T09:02:42.477Z,658.12
2019-04-23T09:03:51.259Z,669.38
2019-04-23T09:05:00.507Z,675.00
2019-04-23T09:05:48.194Z,675.00
2019-04-23T09:06:35.402Z,675.00
2019-04-23T09:07:45.601Z,675.00
2019-04-23T09:09:57.600Z,680.62
2019-04-23T09:11:50.907Z,703.12
2019-04-23T09:12:45.406Z,714.38
2019-04-23T09:13:54.810Z,720.00
2019-04-23T09:14:46.556Z,736.88
2019-04-23T09:15:44.967Z,742.50
2019-04-23T09:16:48.812Z,748.12
2019-04-23T09:17:49.811Z,748.12
2019-04-23T09:18:36.882Z,759.38
2019-04-23T09:19:56.288Z,770.62
2019-04-23T09:20:37.805Z,776.25
2019-04-23T09:21:40.537Z,776.25
2019-04-23T09:22:38.601Z,776.25
2019-04-23T09:26:41.025Z,798.75
2019-04-23T09:27:41.970Z,787.50
2019-04-23T09:28:44.806Z,793.12
2019-04-23T09:30:00.806Z,804.38
2019-04-23T09:30:44.886Z,821.25
2019-04-23T09:32:14.863Z,843.75
2019-04-23T09:32:49.174Z,855.00
2019-04-23T09:33:46.643Z,855.00
2019-04-23T09:34:46.520Z,860.62
2019-04-23T09:35:38.954Z,877.50
2019-04-23T09:36:40.544Z,888.75
2019-04-23T09:38:44.906Z,922.50
2019-04-23T09:39:42.237Z,950.62
2019-04-23T09:40:54.445Z,945.00
2019-04-23T09:41:38.046Z,978.75
2019-04-23T09:42:52.519Z,1001.25
2019-04-23T09:43:36.956Z,1018.12
2019-04-23T09:44:56.554Z,1051.88
2019-04-23T09:45:48.429Z,1051.88
2019-04-23T09:46:44.052Z,1091.25
2019-04-23T09:47:46.309Z,1136.25
2019-04-23T09:48:51.095Z,1175.62
2019-04-23T09:49:40.977Z,1203.75
2019-04-23T09:50:47.207Z,1248.75
2019-04-23T09:51:47.417Z,1288.12
2019-04-23T09:52:52.690Z,1254.38
2019-04-23T09:53:47.192Z,1265.62
2019-04-23T09:54:51.020Z,1305.00
2019-04-23T09:55:43.101Z,1299.38
2019-04-23T09:56:44.614Z,1316.25
2019-04-23T09:57:45.903Z,1327.50
2019-04-23T09:58:48.518Z,1344.38
2019-04-23T09:59:43.271Z,1406.25
2019-04-23T10:01:44.133Z,1490.62
2019-04-23T10:02:34.281Z,1518.75
2019-04-23T10:03:25.713Z,1535.62
2019-04-23T10:04:29.684Z,1513.12
2019-04-23T10:05:28.859Z,1490.62
2019-04-23T10:06:22.794Z,1546.88
2019-04-23T10:07:28.894Z,1552.50
2019-04-23T10:08:21.977Z,1575.00
2019-04-23T10:09:16.674Z,1659.38
2019-04-23T10:10:14.428Z,1676.25
2019-04-23T10:11:15.854Z,1642.50
2019-04-23T10:12:14.634Z,1586.25
2019-04-23T10:13:13.899Z,1327.50
2019-04-23T10:14:14.678Z,1293.75
2019-04-23T10:15:22.775Z,1220.62
2019-04-23T10:16:17.339Z,1136.25
2019-04-23T10:17:14.021Z,1136.25
2019-04-23T10:18:14.190Z,1141.88
2019-04-23T10:19:15.110Z,1175.62
2019-04-23T10:20:13.817Z,1063.12
2019-04-23T10:21:15.327Z,1080.00
2019-04-23T10:22:15.176Z,1158.75
2019-04-23T10:23:14.240Z,1113.75
2019-04-23T10:24:15.152Z,1040.62
2019-04-23T10:25:15.095Z,956.25
2019-04-23T10:26:14.265Z,967.50
2019-04-23T10:27:14.848Z,990.00
2019-04-23T10:28:15.163Z,967.50
2019-04-23T10:29:14.099Z,916.88
2019-04-23T10:30:14.489Z,967.50
2019-04-23T10:31:14.525Z,1046.25
2019-04-23T10:32:13.715Z,1125.00
2019-04-23T10:33:13.939Z,1125.00
2019-04-23T10:34:14.811Z,1080.00
2019-04-23T10:35:22.232Z,1035.00
2019-04-23T10:36:19.096Z,990.00
2019-04-23T10:37:15.595Z,826.88
2019-04-23T10:38:16.381Z,663.75
2019-04-23T10:39:20.745Z,624.38
2019-04-23T10:40:19.635Z,607.50
2019-04-23T10:41:15.993Z,596.25
2019-04-23T10:42:14.206Z,585.00
2019-04-23T10:43:15.046Z,573.75
2019-04-23T10:44:13.569Z,568.12
2019-04-23T10:45:27.299Z,562.50
2019-04-23T10:46:36.582Z,556.88
2019-04-23T10:47:44.677Z,556.88
2019-04-23T10:48:57.641Z,551.25
2019-04-23T10:50:49.561Z,545.62
2019-04-23T10:52:02.600Z,540.00
2019-04-23T10:52:37.643Z,534.38
2019-04-23T10:54:12.596Z,534.38
2019-04-23T10:57:41.319Z,523.12
2019-04-23T10:58:38.460Z,517.50
2019-04-23T11:00:44.979Z,506.25
2019-04-23T11:01:43.604Z,506.25
2019-04-23T11:02:57.805Z,506.25
2019-04-23T11:04:54.355Z,500.62
2019-04-23T11:05:56.324Z,495.00
2019-04-23T11:06:45.075Z,489.38
2019-04-23T11:07:47.181Z,489.38
2019-04-23T11:08:42.435Z,483.75
2019-04-23T11:09:52.970Z,478.12
2019-04-23T11:10:48.432Z,478.12
2019-04-23T11:11:48.312Z,472.50
2019-04-23T11:17:45.610Z,466.88
2019-04-23T11:18:52.090Z,466.88
2019-04-23T11:19:49.313Z,466.88
2019-04-23T11:20:45.444Z,461.25
2019-04-23T11:21:43.086Z,461.25
2019-04-23T11:22:45.167Z,461.25
2019-04-23T11:23:42.081Z,466.88
2019-04-23T11:24:48.330Z,478.12
2019-04-23T11:25:42.923Z,461.25
2019-04-23T11:26:42.371Z,472.50
2019-04-23T11:27:44.008Z,466.88
2019-04-23T11:28:38.235Z,472.50
2019-04-23T11:29:38.697Z,466.88
2019-04-23T11:33:42.985Z,466.88
2019-04-23T11:38:56.250Z,483.75
2019-04-23T11:39:45.915Z,483.75
2019-04-23T11:40:38.470Z,483.75
2019-04-23T11:42:47.167Z,483.75
2019-04-23T11:43:39.496Z,478.12
2019-04-23T11:44:42.003Z,478.12
2019-04-23T11:45:50.305Z,472.50
2019-04-23T11:48:14.662Z,472.50
2019-04-23T11:48:50.799Z,472.50
2019-04-23T11:53:54.251Z,455.62
2019-04-23T11:55:44.676Z,450.00
2019-04-23T11:57:52.025Z,444.38
2019-04-23T11:58:42.855Z,444.38
2019-04-23T11:59:44.303Z,444.38
2019-04-23T12:00:57.207Z,444.38
2019-04-23T12:02:43.357Z,444.38
2019-04-23T12:03:57.103Z,438.75
2019-04-23T12:04:47.399Z,438.75
2019-04-23T12:05:50.621Z,438.75
2019-04-23T12:06:39.812Z,438.75
2019-04-23T12:09:51.712Z,438.75
2019-04-23T12:10:45.883Z,438.75
2019-04-23T12:12:53.360Z,438.75
2019-04-23T12:13:56.607Z,438.75
2019-04-23T12:16:49.204Z,438.75
2019-04-23T12:17:43.861Z,438.75
2019-04-23T12:20:49.125Z,438.75
2019-04-23T12:21:44.699Z,438.75
2019-04-23T12:22:51.429Z,433.12
2019-04-23T12:23:48.419Z,433.12
2019-04-23T12:25:02.524Z,427.50
2019-04-23T12:26:56.545Z,427.50
2019-04-23T12:27:33.396Z,421.88
2019-04-23T12:28:43.925Z,421.88
2019-04-23T12:30:48.620Z,416.25
2019-04-23T12:31:47.650Z,410.62
2019-04-23T12:32:46.474Z,410.62
2019-04-23T12:33:53.615Z,405.00
2019-04-23T12:34:52.572Z,405.00
2019-04-23T12:35:35.593Z,399.38
2019-04-23T12:36:51.029Z,399.38
2019-04-23T12:37:39.114Z,393.75
2019-04-23T12:38:40.716Z,393.75
2019-04-23T12:39:42.031Z,393.75
2019-04-23T12:40:45.681Z,393.75
2019-04-23T12:41:43.426Z,388.12
2019-04-23T12:43:28.816Z,382.50
2019-04-23T12:44:45.693Z,382.50
2019-04-23T12:45:38.758Z,382.50
2019-04-23T12:46:48.878Z,376.88
2019-04-23T12:47:49.192Z,376.88
2019-04-23T12:48:53.304Z,371.25
2019-04-23T12:53:45.520Z,365.62
2019-04-23T12:55:01.418Z,365.62
2019-04-23T12:55:39.993Z,360.00
2019-04-23T12:56:53.118Z,360.00
2019-04-23T12:57:40.892Z,360.00
2019-04-23T12:58:34.058Z,360.00
2019-04-23T12:59:47.752Z,354.38
2019-04-23T13:01:48.903Z,354.38
2019-04-23T13:02:46.748Z,354.38
2019-04-23T13:06:42.585Z,354.38
2019-04-23T13:08:44.638Z,354.38
2019-04-23T13:09:49.121Z,354.38
2019-04-23T13:10:53.997Z,354.38
2019-04-23T13:11:45.063Z,354.38
2019-04-23T13:12:57.223Z,354.38
2019-04-23T13:13:48.229Z,354.38
2019-04-23T13:14:49.093Z,354.38
2019-04-23T13:15:40.274Z,354.38
2019-04-23T13:16:50.000Z,360.00
2019-04-23T13:17:50.370Z,360.00
2019-04-23T13:19:51.876Z,360.00
2019-04-23T13:20:47.952Z,360.00
2019-04-23T13:24:40.772Z,360.00
2019-04-23T13:25:55.526Z,360.00
2019-04-23T13:26:35.369Z,365.62
2019-04-23T13:27:46.646Z,365.62
2019-04-23T13:28:40.566Z,365.62
2019-04-23T13:29:43.206Z,365.62
2019-04-23T13:31:34.642Z,365.62
2019-04-23T13:32:46.398Z,365.62
2019-04-23T13:33:51.403Z,365.62
2019-04-23T13:34:51.045Z,365.62
2019-04-23T13:36:01.637Z,365.62
2019-04-23T13:37:46.093Z,365.62
2019-04-23T13:39:42.195Z,365.62
2019-04-23T13:41:52.121Z,365.62
2019-04-23T13:42:47.889Z,365.62
2019-04-23T13:43:41.005Z,365.62
2019-04-23T13:44:42.711Z,365.62
2019-04-23T13:46:35.644Z,365.62
2019-04-23T13:47:59.643Z,365.62
2019-04-23T13:48:40.137Z,365.62
2019-04-23T13:49:49.275Z,365.62
2019-04-23T13:51:43.499Z,365.62
2019-04-23T13:55:04.679Z,365.62
2019-04-23T13:55:36.245Z,365.62
2019-04-23T13:57:12.976Z,365.62
2019-04-23T13:58:43.362Z,365.62
2019-04-23T13:59:47.103Z,360.00
2019-04-23T14:00:58.103Z,360.00
2019-04-23T14:04:45.175Z,365.62
2019-04-23T14:05:41.203Z,354.38
2019-04-23T14:06:43.406Z,354.38
2019-04-23T14:07:48.599Z,354.38
2019-04-23T14:08:47.394Z,354.38
2019-04-23T14:09:45.862Z,354.38
2019-04-23T14:10:43.453Z,354.38
2019-04-23T14:11:40.418Z,354.38
2019-04-23T14:13:06.528Z,354.38
2019-04-23T14:13:52.045Z,354.38
2019-04-23T14:14:47.835Z,354.38
2019-04-23T14:15:47.928Z,354.38
2019-04-23T14:18:56.565Z,348.75
2019-04-23T14:19:41.824Z,348.75
2019-04-23T14:20:40.442Z,348.75
2019-04-23T14:21:37.685Z,354.38
2019-04-23T14:23:59.673Z,348.75
2019-04-23T14:25:02.062Z,348.75
2019-04-23T14:25:51.732Z,348.75
2019-04-23T14:27:49.514Z,343.12
2019-04-23T14:29:48.972Z,343.12
2019-04-23T14:30:46.422Z,343.12
2019-04-23T14:33:46.975Z,343.12
2019-04-23T14:34:48.385Z,343.12
2019-04-23T14:35:40.317Z,348.75
2019-04-23T14:36:44.731Z,343.12
2019-04-23T14:37:52.825Z,343.12
2019-04-23T14:39:42.669Z,343.12
2019-04-23T14:40:51.382Z,343.12
2019-04-23T14:42:02.768Z,337.50
2019-04-23T14:43:49.262Z,337.50
2019-04-23T14:44:41.482Z,337.50
2019-04-23T14:46:17.417Z,331.88
2019-04-23T14:46:50.127Z,331.88
2019-04-23T14:48:46.507Z,331.88
2019-04-23T14:49:53.971Z,331.88
2019-04-23T14:50:41.232Z,331.88
2019-04-23T14:52:00.148Z,331.88
2019-04-23T14:52:50.757Z,326.25
2019-04-23T14:53:42.648Z,326.25
2019-04-23T14:55:15.261Z,326.25
2019-04-23T14:55:55.696Z,320.62
2019-04-23T14:57:06.797Z,320.62
2019-04-23T14:59:37.599Z,315.00
2019-04-23T15:00:54.114Z,315.00
2019-04-23T15:01:55.005Z,309.38
2019-04-23T15:02:46.525Z,309.38
2019-04-23T15:03:50.532Z,309.38
2019-04-23T15:04:43.693Z,303.75
2019-04-23T15:05:52.780Z,303.75
2019-04-23T15:06:46.839Z,303.75
2019-04-23T15:09:43.881Z,298.12
2019-04-23T15:11:06.676Z,298.12
2019-04-23T15:11:45.353Z,303.75
2019-04-23T15:13:45.618Z,292.50
2019-04-23T15:14:45.989Z,292.50
2019-04-23T15:15:44.221Z,298.12
2019-04-23T15:17:44.579Z,292.50
2019-04-23T15:18:52.661Z,286.88
2019-04-23T15:19:43.158Z,286.88
2019-04-23T15:20:41.685Z,292.50
2019-04-23T15:21:53.716Z,281.25
2019-04-23T15:22:53.235Z,281.25
2019-04-23T15:24:46.897Z,281.25
2019-04-23T15:25:53.204Z,281.25
2019-04-23T15:28:16.858Z,275.62
2019-04-23T15:29:28.118Z,275.62
2019-04-23T15:30:38.741Z,270.00
2019-04-23T15:32:53.863Z,270.00
2019-04-23T15:33:49.151Z,270.00
2019-04-23T15:34:37.681Z,270.00
2019-04-23T15:38:01.005Z,264.38
2019-04-23T15:38:53.514Z,264.38
2019-04-23T15:39:40.564Z,264.38
2019-04-23T15:41:02.657Z,264.38
2019-04-23T15:41:53.104Z,264.38